sensor_id;sensor_type;location;lat;lon;timestamp;P1;durP1;ratioP1;P2;durP2;ratioP2
59189;SDS011;50749;51.636;4.948;2022-11-03T00:04:12;3.50;;;1.15;;
59189;SDS011;50749;51.636;4.948;2022-11-03T00:06:39;6.95;;;1.92;;
59189;SDS011;50749;51.636;4.948;2022-11-03T00:09:08;5.50;;;1.45;;
59189;SDS011;50749;51.636;4.948;2022-11-03T00:11:36;6.03;;;1.60;;
59189;SDS011;50749;51.636;4.948;2022-11-03T00:14:03;3.90;;;1.42;;
59189;SDS011;50749;51.636;4.948;2022-11-03T00:16:31;2.80;;;1.70;;
59189;SDS011;50749;51.636;4.948;2022-11-03T00:18:59;5.82;;;1.83;;
59189;SDS011;50749;51.636;4.948;2022-11-03T00:21:25;6.88;;;1.55;;
59189;SDS011;50749;51.636;4.948;2022-11-03T00:23:51;8.43;;;1.50;;
59189;SDS011;50749;51.636;4.948;2022-11-03T00:26:22;2.90;;;1.15;;
59189;SDS011;50749;51.636;4.948;2022-11-03T00:28:50;8.48;;;1.98;;
59189;SDS011;50749;51.636;4.948;2022-11-03T00:31:22;3.92;;;1.35;;
59189;SDS011;50749;51.636;4.948;2022-11-03T00:33:55;6.13;;;1.20;;
59189;SDS011;50749;51.636;4.948;2022-11-03T00:36:23;4.45;;;1.33;;
59189;SDS011;50749;51.636;4.948;2022-11-03T00:38:50;6.90;;;1.40;;
59189;SDS011;50749;51.636;4.948;2022-11-03T00:41:17;7.35;;;1.52;;
59189;SDS011;50749;51.636;4.948;2022-11-03T00:43:47;6.28;;;1.40;;
59189;SDS011;50749;51.636;4.948;2022-11-03T00:46:14;6.18;;;1.30;;
59189;SDS011;50749;51.636;4.948;2022-11-03T00:48:42;4.38;;;1.55;;
59189;SDS011;50749;51.636;4.948;2022-11-03T00:51:09;6.30;;;1.40;;
59189;SDS011;50749;51.636;4.948;2022-11-03T00:53:36;5.22;;;1.25;;
59189;SDS011;50749;51.636;4.948;2022-11-03T00:56:11;6.60;;;1.42;;
59189;SDS011;50749;51.636;4.948;2022-11-03T00:58:47;3.83;;;1.30;;
59189;SDS011;50749;51.636;4.948;2022-11-03T01:01:15;3.58;;;1.25;;
59189;SDS011;50749;51.636;4.948;2022-11-03T01:03:44;6.10;;;1.45;;
59189;SDS011;50749;51.636;4.948;2022-11-03T01:06:32;4.80;;;1.23;;
59189;SDS011;50749;51.636;4.948;2022-11-03T01:12:04;5.47;;;1.48;;
59189;SDS011;50749;51.636;4.948;2022-11-03T01:17:01;6.53;;;1.60;;
59189;SDS011;50749;51.636;4.948;2022-11-03T01:19:29;4.10;;;1.60;;
59189;SDS011;50749;51.636;4.948;2022-11-03T01:21:55;4.80;;;1.38;;
59189;SDS011;50749;51.636;4.948;2022-11-03T01:24:21;2.05;;;1.10;;
59189;SDS011;50749;51.636;4.948;2022-11-03T01:26:49;7.32;;;1.65;;
59189;SDS011;50749;51.636;4.948;2022-11-03T01:29:14;5.20;;;1.55;;
59189;SDS011;50749;51.636;4.948;2022-11-03T01:31:42;6.43;;;1.55;;
59189;SDS011;50749;51.636;4.948;2022-11-03T01:34:10;4.88;;;1.23;;
59189;SDS011;50749;51.636;4.948;2022-11-03T01:36:42;2.22;;;1.30;;
59189;SDS011;50749;51.636;4.948;2022-11-03T01:39:12;3.80;;;1.48;;
59189;SDS011;50749;51.636;4.948;2022-11-03T01:41:42;5.57;;;1.55;;
59189;SDS011;50749;51.636;4.948;2022-11-03T01:46:41;5.65;;;1.40;;
59189;SDS011;50749;51.636;4.948;2022-11-03T01:49:14;4.20;;;0.98;;
59189;SDS011;50749;51.636;4.948;2022-11-03T01:51:48;5.45;;;1.45;;
59189;SDS011;50749;51.636;4.948;2022-11-03T01:54:20;4.45;;;1.00;;
59189;SDS011;50749;51.636;4.948;2022-11-03T01:56:48;6.40;;;1.60;;
59189;SDS011;50749;51.636;4.948;2022-11-03T01:59:16;6.07;;;1.50;;
59189;SDS011;50749;51.636;4.948;2022-11-03T02:01:45;3.05;;;0.90;;
59189;SDS011;50749;51.636;4.948;2022-11-03T02:04:18;3.30;;;1.17;;
59189;SDS011;50749;51.636;4.948;2022-11-03T02:06:53;6.45;;;1.25;;
59189;SDS011;50749;51.636;4.948;2022-11-03T02:09:27;4.30;;;1.40;;
59189;SDS011;50749;51.636;4.948;2022-11-03T02:11:53;6.20;;;1.50;;
59189;SDS011;50749;51.636;4.948;2022-11-03T02:14:32;3.72;;;1.15;;
59189;SDS011;50749;51.636;4.948;2022-11-03T02:17:08;5.65;;;1.00;;
59189;SDS011;50749;51.636;4.948;2022-11-03T02:19:59;4.97;;;1.05;;
59189;SDS011;50749;51.636;4.948;2022-11-03T02:25:16;2.95;;;0.95;;
59189;SDS011;50749;51.636;4.948;2022-11-03T02:28:02;4.97;;;1.27;;
59189;SDS011;50749;51.636;4.948;2022-11-03T02:30:50;5.75;;;1.50;;
59189;SDS011;50749;51.636;4.948;2022-11-03T02:36:02;7.30;;;1.13;;
59189;SDS011;50749;51.636;4.948;2022-11-03T02:38:39;5.15;;;1.23;;
59189;SDS011;50749;51.636;4.948;2022-11-03T02:41:10;4.15;;;1.10;;
59189;SDS011;50749;51.636;4.948;2022-11-03T02:43:39;6.25;;;1.58;;
59189;SDS011;50749;51.636;4.948;2022-11-03T02:46:06;6.18;;;1.30;;
59189;SDS011;50749;51.636;4.948;2022-11-03T02:48:33;3.58;;;1.08;;
59189;SDS011;50749;51.636;4.948;2022-11-03T02:50:59;5.53;;;1.38;;
59189;SDS011;50749;51.636;4.948;2022-11-03T02:53:32;3.40;;;1.20;;
59189;SDS011;50749;51.636;4.948;2022-11-03T02:56:09;5.55;;;1.48;;
59189;SDS011;50749;51.636;4.948;2022-11-03T03:01:34;5.07;;;1.48;;
59189;SDS011;50749;51.636;4.948;2022-11-03T03:07:04;3.08;;;0.85;;
59189;SDS011;50749;51.636;4.948;2022-11-03T03:09:36;6.35;;;1.20;;
59189;SDS011;50749;51.636;4.948;2022-11-03T03:12:16;6.13;;;1.35;;
59189;SDS011;50749;51.636;4.948;2022-11-03T03:14:46;5.10;;;1.17;;
59189;SDS011;50749;51.636;4.948;2022-11-03T03:19:55;3.28;;;1.05;;
59189;SDS011;50749;51.636;4.948;2022-11-03T03:25:14;4.63;;;1.33;;
59189;SDS011;50749;51.636;4.948;2022-11-03T03:27:41;5.53;;;1.13;;
59189;SDS011;50749;51.636;4.948;2022-11-03T03:30:12;3.55;;;1.20;;
59189;SDS011;50749;51.636;4.948;2022-11-03T03:32:39;2.75;;;1.15;;
59189;SDS011;50749;51.636;4.948;2022-11-03T03:35:18;3.13;;;0.93;;
59189;SDS011;50749;51.636;4.948;2022-11-03T03:37:49;3.28;;;1.13;;
59189;SDS011;50749;51.636;4.948;2022-11-03T03:40:23;5.90;;;1.27;;
59189;SDS011;50749;51.636;4.948;2022-11-03T03:43:01;2.90;;;1.15;;
59189;SDS011;50749;51.636;4.948;2022-11-03T03:45:31;6.07;;;1.52;;
59189;SDS011;50749;51.636;4.948;2022-11-03T03:48:02;5.22;;;1.40;;
59189;SDS011;50749;51.636;4.948;2022-11-03T03:50:32;4.38;;;1.45;;
59189;SDS011;50749;51.636;4.948;2022-11-03T03:53:03;4.05;;;1.10;;
59189;SDS011;50749;51.636;4.948;2022-11-03T03:55:35;4.65;;;1.25;;
59189;SDS011;50749;51.636;4.948;2022-11-03T03:58:03;3.75;;;1.30;;
59189;SDS011;50749;51.636;4.948;2022-11-03T04:00:33;4.40;;;0.95;;
59189;SDS011;50749;51.636;4.948;2022-11-03T04:03:00;4.70;;;0.90;;
59189;SDS011;50749;51.636;4.948;2022-11-03T04:05:25;4.70;;;1.30;;
59189;SDS011;50749;51.636;4.948;2022-11-03T04:07:53;3.03;;;1.10;;
59189;SDS011;50749;51.636;4.948;2022-11-03T04:10:19;5.10;;;1.42;;
59189;SDS011;50749;51.636;4.948;2022-11-03T04:12:48;5.20;;;1.10;;
59189;SDS011;50749;51.636;4.948;2022-11-03T04:15:43;4.00;;;0.80;;
59189;SDS011;50749;51.636;4.948;2022-11-03T04:18:29;5.30;;;1.50;;
59189;SDS011;50749;51.636;4.948;2022-11-03T04:21:13;4.85;;;0.98;;
59189;SDS011;50749;51.636;4.948;2022-11-03T04:23:58;4.10;;;1.20;;
59189;SDS011;50749;51.636;4.948;2022-11-03T04:26:29;4.30;;;1.27;;
59189;SDS011;50749;51.636;4.948;2022-11-03T04:28:56;3.70;;;1.13;;
59189;SDS011;50749;51.636;4.948;2022-11-03T04:31:22;3.30;;;0.95;;
59189;SDS011;50749;51.636;4.948;2022-11-03T04:33:49;3.75;;;1.00;;
59189;SDS011;50749;51.636;4.948;2022-11-03T04:36:19;3.65;;;1.13;;
59189;SDS011;50749;51.636;4.948;2022-11-03T04:38:49;1.88;;;0.70;;
59189;SDS011;50749;51.636;4.948;2022-11-03T04:43:43;3.08;;;1.10;;
59189;SDS011;50749;51.636;4.948;2022-11-03T04:46:14;2.95;;;1.00;;
59189;SDS011;50749;51.636;4.948;2022-11-03T04:48:41;5.10;;;1.17;;
59189;SDS011;50749;51.636;4.948;2022-11-03T04:51:12;7.30;;;1.30;;
59189;SDS011;50749;51.636;4.948;2022-11-03T04:53:47;3.35;;;1.40;;
59189;SDS011;50749;51.636;4.948;2022-11-03T04:56:19;3.85;;;0.90;;
59189;SDS011;50749;51.636;4.948;2022-11-03T04:58:46;2.90;;;1.10;;
59189;SDS011;50749;51.636;4.948;2022-11-03T05:01:13;6.03;;;1.80;;
59189;SDS011;50749;51.636;4.948;2022-11-03T05:03:41;2.17;;;1.13;;
59189;SDS011;50749;51.636;4.948;2022-11-03T05:06:10;2.08;;;0.85;;
59189;SDS011;50749;51.636;4.948;2022-11-03T05:08:40;6.18;;;1.17;;
59189;SDS011;50749;51.636;4.948;2022-11-03T05:11:20;2.72;;;0.82;;
59189;SDS011;50749;51.636;4.948;2022-11-03T05:13:59;5.57;;;1.05;;
59189;SDS011;50749;51.636;4.948;2022-11-03T05:16:29;7.95;;;1.10;;
59189;SDS011;50749;51.636;4.948;2022-11-03T05:18:56;3.10;;;1.08;;
59189;SDS011;50749;51.636;4.948;2022-11-03T05:21:25;2.90;;;0.98;;
59189;SDS011;50749;51.636;4.948;2022-11-03T05:23:57;3.15;;;1.20;;
59189;SDS011;50749;51.636;4.948;2022-11-03T05:26:36;4.00;;;1.08;;
59189;SDS011;50749;51.636;4.948;2022-11-03T05:29:16;3.25;;;1.00;;
59189;SDS011;50749;51.636;4.948;2022-11-03T05:31:45;2.63;;;1.17;;
59189;SDS011;50749;51.636;4.948;2022-11-03T05:34:34;3.33;;;1.30;;
59189;SDS011;50749;51.636;4.948;2022-11-03T05:39:59;2.40;;;0.70;;
59189;SDS011;50749;51.636;4.948;2022-11-03T05:42:40;5.88;;;1.05;;
59189;SDS011;50749;51.636;4.948;2022-11-03T05:45:23;5.03;;;1.10;;
59189;SDS011;50749;51.636;4.948;2022-11-03T05:48:15;4.13;;;1.13;;
59189;SDS011;50749;51.636;4.948;2022-11-03T05:50:55;3.72;;;1.70;;
59189;SDS011;50749;51.636;4.948;2022-11-03T05:53:31;2.80;;;0.88;;
59189;SDS011;50749;51.636;4.948;2022-11-03T05:56:03;2.83;;;1.13;;
59189;SDS011;50749;51.636;4.948;2022-11-03T05:58:32;2.72;;;0.90;;
59189;SDS011;50749;51.636;4.948;2022-11-03T06:03:53;6.10;;;1.25;;
59189;SDS011;50749;51.636;4.948;2022-11-03T06:06:21;7.25;;;0.88;;
59189;SDS011;50749;51.636;4.948;2022-11-03T06:08:55;7.43;;;1.40;;
59189;SDS011;50749;51.636;4.948;2022-11-03T06:11:34;5.25;;;0.90;;
59189;SDS011;50749;51.636;4.948;2022-11-03T06:14:01;6.65;;;1.23;;
59189;SDS011;50749;51.636;4.948;2022-11-03T06:16:41;3.17;;;0.88;;
59189;SDS011;50749;51.636;4.948;2022-11-03T06:19:14;7.18;;;1.17;;
59189;SDS011;50749;51.636;4.948;2022-11-03T06:21:46;12.13;;;1.45;;
59189;SDS011;50749;51.636;4.948;2022-11-03T06:24:17;3.22;;;1.13;;
59189;SDS011;50749;51.636;4.948;2022-11-03T06:26:46;5.03;;;1.20;;
59189;SDS011;50749;51.636;4.948;2022-11-03T06:29:17;7.07;;;1.17;;
59189;SDS011;50749;51.636;4.948;2022-11-03T06:31:49;4.93;;;1.05;;
59189;SDS011;50749;51.636;4.948;2022-11-03T06:36:47;3.28;;;1.33;;
59189;SDS011;50749;51.636;4.948;2022-11-03T06:39:16;6.50;;;1.02;;
59189;SDS011;50749;51.636;4.948;2022-11-03T06:41:45;4.95;;;1.00;;
59189;SDS011;50749;51.636;4.948;2022-11-03T06:44:21;3.10;;;1.10;;
59189;SDS011;50749;51.636;4.948;2022-11-03T06:47:00;5.43;;;1.08;;
59189;SDS011;50749;51.636;4.948;2022-11-03T06:49:52;5.05;;;1.33;;
59189;SDS011;50749;51.636;4.948;2022-11-03T06:54:49;3.33;;;1.15;;
59189;SDS011;50749;51.636;4.948;2022-11-03T06:57:38;10.45;;;1.77;;
59189;SDS011;50749;51.636;4.948;2022-11-03T07:05:27;5.80;;;1.52;;
59189;SDS011;50749;51.636;4.948;2022-11-03T07:07:55;5.32;;;1.88;;
59189;SDS011;50749;51.636;4.948;2022-11-03T07:10:24;7.38;;;1.00;;
59189;SDS011;50749;51.636;4.948;2022-11-03T07:12:52;7.20;;;1.25;;
59189;SDS011;50749;51.636;4.948;2022-11-03T07:15:25;4.70;;;1.42;;
59189;SDS011;50749;51.636;4.948;2022-11-03T07:17:55;5.80;;;1.45;;
59189;SDS011;50749;51.636;4.948;2022-11-03T07:20:22;7.18;;;1.42;;
59189;SDS011;50749;51.636;4.948;2022-11-03T07:22:48;6.22;;;1.48;;
59189;SDS011;50749;51.636;4.948;2022-11-03T07:25:18;6.03;;;1.00;;
59189;SDS011;50749;51.636;4.948;2022-11-03T07:27:49;5.65;;;1.20;;
59189;SDS011;50749;51.636;4.948;2022-11-03T07:32:50;5.75;;;1.23;;
59189;SDS011;50749;51.636;4.948;2022-11-03T07:37:52;4.15;;;1.08;;
59189;SDS011;50749;51.636;4.948;2022-11-03T07:40:26;3.90;;;1.45;;
59189;SDS011;50749;51.636;4.948;2022-11-03T07:42:55;5.88;;;1.60;;
59189;SDS011;50749;51.636;4.948;2022-11-03T07:51:35;4.10;;;1.08;;
59189;SDS011;50749;51.636;4.948;2022-11-03T07:54:18;5.28;;;0.88;;
59189;SDS011;50749;51.636;4.948;2022-11-03T07:57:04;2.95;;;1.30;;
59189;SDS011;50749;51.636;4.948;2022-11-03T07:59:41;9.50;;;1.30;;
59189;SDS011;50749;51.636;4.948;2022-11-03T08:02:28;3.10;;;0.95;;
59189;SDS011;50749;51.636;4.948;2022-11-03T08:05:05;5.45;;;1.10;;
59189;SDS011;50749;51.636;4.948;2022-11-03T08:07:32;8.60;;;1.23;;
59189;SDS011;50749;51.636;4.948;2022-11-03T08:09:59;4.53;;;1.20;;
59189;SDS011;50749;51.636;4.948;2022-11-03T08:12:25;4.60;;;1.10;;
59189;SDS011;50749;51.636;4.948;2022-11-03T08:14:51;4.25;;;1.30;;
59189;SDS011;50749;51.636;4.948;2022-11-03T08:17:19;4.65;;;1.38;;
59189;SDS011;50749;51.636;4.948;2022-11-03T08:19:45;4.68;;;1.00;;
59189;SDS011;50749;51.636;4.948;2022-11-03T08:22:13;5.18;;;1.05;;
59189;SDS011;50749;51.636;4.948;2022-11-03T08:24:38;9.43;;;1.30;;
59189;SDS011;50749;51.636;4.948;2022-11-03T08:27:05;5.82;;;1.25;;
59189;SDS011;50749;51.636;4.948;2022-11-03T08:29:31;4.70;;;1.17;;
59189;SDS011;50749;51.636;4.948;2022-11-03T08:31:58;9.13;;;1.50;;
59189;SDS011;50749;51.636;4.948;2022-11-03T08:34:25;4.78;;;1.00;;
59189;SDS011;50749;51.636;4.948;2022-11-03T08:36:52;3.40;;;1.30;;
59189;SDS011;50749;51.636;4.948;2022-11-03T08:39:25;4.32;;;1.15;;
59189;SDS011;50749;51.636;4.948;2022-11-03T08:41:51;3.63;;;1.17;;
59189;SDS011;50749;51.636;4.948;2022-11-03T08:44:17;15.95;;;2.08;;
59189;SDS011;50749;51.636;4.948;2022-11-03T08:46:43;4.63;;;1.02;;
59189;SDS011;50749;51.636;4.948;2022-11-03T08:49:09;3.88;;;1.08;;
59189;SDS011;50749;51.636;4.948;2022-11-03T08:51:35;5.28;;;0.88;;
59189;SDS011;50749;51.636;4.948;2022-11-03T08:54:01;7.15;;;1.67;;
59189;SDS011;50749;51.636;4.948;2022-11-03T08:56:27;6.32;;;1.45;;
59189;SDS011;50749;51.636;4.948;2022-11-03T08:58:53;2.00;;;1.08;;
59189;SDS011;50749;51.636;4.948;2022-11-03T09:01:19;4.28;;;1.10;;
59189;SDS011;50749;51.636;4.948;2022-11-03T09:03:45;2.78;;;0.88;;
59189;SDS011;50749;51.636;4.948;2022-11-03T09:06:11;1.20;;;0.75;;
59189;SDS011;50749;51.636;4.948;2022-11-03T09:08:37;3.28;;;1.13;;
59189;SDS011;50749;51.636;4.948;2022-11-03T09:11:03;5.57;;;0.93;;
59189;SDS011;50749;51.636;4.948;2022-11-03T09:13:29;3.58;;;0.90;;
59189;SDS011;50749;51.636;4.948;2022-11-03T09:15:55;4.35;;;1.40;;
59189;SDS011;50749;51.636;4.948;2022-11-03T09:18:22;4.43;;;1.38;;
59189;SDS011;50749;51.636;4.948;2022-11-03T09:20:48;5.60;;;1.42;;
59189;SDS011;50749;51.636;4.948;2022-11-03T09:23:14;5.85;;;1.13;;
59189;SDS011;50749;51.636;4.948;2022-11-03T09:25:41;3.58;;;1.15;;
59189;SDS011;50749;51.636;4.948;2022-11-03T09:28:07;4.90;;;0.90;;
59189;SDS011;50749;51.636;4.948;2022-11-03T09:30:33;4.82;;;0.95;;
59189;SDS011;50749;51.636;4.948;2022-11-03T09:33:01;3.67;;;0.90;;
59189;SDS011;50749;51.636;4.948;2022-11-03T09:35:27;2.05;;;0.73;;
59189;SDS011;50749;51.636;4.948;2022-11-03T09:37:52;3.15;;;1.25;;
59189;SDS011;50749;51.636;4.948;2022-11-03T09:40:18;2.80;;;0.90;;
59189;SDS011;50749;51.636;4.948;2022-11-03T09:42:45;5.20;;;1.00;;
59189;SDS011;50749;51.636;4.948;2022-11-03T09:45:13;3.00;;;0.90;;
59189;SDS011;50749;51.636;4.948;2022-11-03T09:47:39;2.80;;;0.90;;
59189;SDS011;50749;51.636;4.948;2022-11-03T09:50:15;5.57;;;1.23;;
59189;SDS011;50749;51.636;4.948;2022-11-03T09:52:43;3.92;;;1.27;;
59189;SDS011;50749;51.636;4.948;2022-11-03T09:55:14;4.75;;;1.23;;
59189;SDS011;50749;51.636;4.948;2022-11-03T09:57:44;2.22;;;1.30;;
59189;SDS011;50749;51.636;4.948;2022-11-03T10:00:18;3.13;;;1.40;;
59189;SDS011;50749;51.636;4.948;2022-11-03T10:02:45;5.70;;;0.88;;
59189;SDS011;50749;51.636;4.948;2022-11-03T10:05:13;8.82;;;1.27;;
59189;SDS011;50749;51.636;4.948;2022-11-03T10:07:45;2.63;;;1.20;;
59189;SDS011;50749;51.636;4.948;2022-11-03T10:10:14;5.32;;;1.20;;
59189;SDS011;50749;51.636;4.948;2022-11-03T10:12:43;5.28;;;0.80;;
59189;SDS011;50749;51.636;4.948;2022-11-03T10:15:14;2.85;;;0.90;;
59189;SDS011;50749;51.636;4.948;2022-11-03T10:17:43;2.85;;;1.00;;
59189;SDS011;50749;51.636;4.948;2022-11-03T10:20:10;3.67;;;0.93;;
59189;SDS011;50749;51.636;4.948;2022-11-03T10:22:38;4.03;;;1.05;;
59189;SDS011;50749;51.636;4.948;2022-11-03T10:27:51;2.45;;;1.00;;
59189;SDS011;50749;51.636;4.948;2022-11-03T10:30:20;3.33;;;0.80;;
59189;SDS011;50749;51.636;4.948;2022-11-03T10:32:46;3.30;;;1.08;;
59189;SDS011;50749;51.636;4.948;2022-11-03T10:35:31;4.53;;;0.95;;
59189;SDS011;50749;51.636;4.948;2022-11-03T10:44:04;4.57;;;1.23;;
59189;SDS011;50749;51.636;4.948;2022-11-03T10:46:54;6.20;;;1.10;;
59189;SDS011;50749;51.636;4.948;2022-11-03T10:49:22;3.35;;;1.08;;
59189;SDS011;50749;51.636;4.948;2022-11-03T10:51:50;4.55;;;1.00;;
59189;SDS011;50749;51.636;4.948;2022-11-03T10:54:23;3.63;;;1.20;;
59189;SDS011;50749;51.636;4.948;2022-11-03T10:56:49;4.18;;;1.20;;
59189;SDS011;50749;51.636;4.948;2022-11-03T10:59:21;8.88;;;1.33;;
59189;SDS011;50749;51.636;4.948;2022-11-03T11:01:58;3.20;;;1.05;;
59189;SDS011;50749;51.636;4.948;2022-11-03T11:04:25;1.48;;;0.75;;
59189;SDS011;50749;51.636;4.948;2022-11-03T11:06:52;2.95;;;0.80;;
59189;SDS011;50749;51.636;4.948;2022-11-03T11:09:21;2.33;;;0.73;;
59189;SDS011;50749;51.636;4.948;2022-11-03T11:12:04;5.93;;;1.17;;
59189;SDS011;50749;51.636;4.948;2022-11-03T11:14:33;1.92;;;0.90;;
59189;SDS011;50749;51.636;4.948;2022-11-03T11:17:01;4.90;;;1.42;;
59189;SDS011;50749;51.636;4.948;2022-11-03T11:19:29;3.80;;;1.00;;
59189;SDS011;50749;51.636;4.948;2022-11-03T11:22:20;5.63;;;1.05;;
59189;SDS011;50749;51.636;4.948;2022-11-03T11:35:15;5.70;;;1.65;;
59189;SDS011;50749;51.636;4.948;2022-11-03T11:37:51;7.18;;;1.20;;
59189;SDS011;50749;51.636;4.948;2022-11-03T11:48:32;7.78;;;2.00;;
59189;SDS011;50749;51.636;4.948;2022-11-03T11:51:00;11.38;;;2.53;;
59189;SDS011;50749;51.636;4.948;2022-11-03T11:53:27;14.35;;;3.60;;
59189;SDS011;50749;51.636;4.948;2022-11-03T11:55:59;12.07;;;3.05;;
59189;SDS011;50749;51.636;4.948;2022-11-03T11:58:45;10.40;;;2.88;;
59189;SDS011;50749;51.636;4.948;2022-11-03T12:06:55;7.53;;;2.30;;
59189;SDS011;50749;51.636;4.948;2022-11-03T12:09:31;8.98;;;2.33;;
59189;SDS011;50749;51.636;4.948;2022-11-03T12:12:02;8.43;;;2.20;;
59189;SDS011;50749;51.636;4.948;2022-11-03T12:16:54;12.73;;;2.80;;
59189;SDS011;50749;51.636;4.948;2022-11-03T12:24:52;7.85;;;2.03;;
59189;SDS011;50749;51.636;4.948;2022-11-03T12:30:10;9.75;;;2.65;;
59189;SDS011;50749;51.636;4.948;2022-11-03T12:32:41;13.43;;;2.92;;
59189;SDS011;50749;51.636;4.948;2022-11-03T12:35:07;9.13;;;2.08;;
59189;SDS011;50749;51.636;4.948;2022-11-03T12:37:34;11.10;;;2.45;;
59189;SDS011;50749;51.636;4.948;2022-11-03T12:39:59;11.38;;;2.95;;
59189;SDS011;50749;51.636;4.948;2022-11-03T12:42:26;7.72;;;2.47;;
59189;SDS011;50749;51.636;4.948;2022-11-03T12:44:56;7.97;;;1.80;;
59189;SDS011;50749;51.636;4.948;2022-11-03T12:47:22;7.45;;;2.20;;
59189;SDS011;50749;51.636;4.948;2022-11-03T12:49:48;11.07;;;2.97;;
59189;SDS011;50749;51.636;4.948;2022-11-03T12:52:14;7.30;;;1.85;;
59189;SDS011;50749;51.636;4.948;2022-11-03T12:54:40;5.78;;;2.03;;
59189;SDS011;50749;51.636;4.948;2022-11-03T12:57:06;5.30;;;1.52;;
59189;SDS011;50749;51.636;4.948;2022-11-03T12:59:33;8.20;;;1.83;;
59189;SDS011;50749;51.636;4.948;2022-11-03T13:01:58;5.43;;;2.00;;
59189;SDS011;50749;51.636;4.948;2022-11-03T13:04:25;4.75;;;1.83;;
59189;SDS011;50749;51.636;4.948;2022-11-03T13:06:51;5.07;;;1.52;;
59189;SDS011;50749;51.636;4.948;2022-11-03T13:09:16;4.80;;;1.67;;
59189;SDS011;50749;51.636;4.948;2022-11-03T13:11:44;7.03;;;2.20;;
59189;SDS011;50749;51.636;4.948;2022-11-03T13:14:33;5.47;;;1.60;;
59189;SDS011;50749;51.636;4.948;2022-11-03T13:17:01;5.68;;;1.60;;
59189;SDS011;50749;51.636;4.948;2022-11-03T13:19:28;5.28;;;1.67;;
59189;SDS011;50749;51.636;4.948;2022-11-03T13:21:54;5.38;;;1.65;;
59189;SDS011;50749;51.636;4.948;2022-11-03T13:24:21;6.43;;;1.77;;
59189;SDS011;50749;51.636;4.948;2022-11-03T13:26:47;4.95;;;1.48;;
59189;SDS011;50749;51.636;4.948;2022-11-03T13:29:15;5.50;;;1.50;;
59189;SDS011;50749;51.636;4.948;2022-11-03T13:31:40;5.93;;;2.35;;
59189;SDS011;50749;51.636;4.948;2022-11-03T13:34:06;4.70;;;1.42;;
59189;SDS011;50749;51.636;4.948;2022-11-03T13:36:32;4.90;;;1.55;;
59189;SDS011;50749;51.636;4.948;2022-11-03T13:38:58;7.80;;;1.70;;
59189;SDS011;50749;51.636;4.948;2022-11-03T13:41:25;4.07;;;1.80;;
59189;SDS011;50749;51.636;4.948;2022-11-03T13:43:52;4.72;;;1.10;;
59189;SDS011;50749;51.636;4.948;2022-11-03T13:46:17;5.68;;;1.25;;
59189;SDS011;50749;51.636;4.948;2022-11-03T13:48:43;2.30;;;1.05;;
59189;SDS011;50749;51.636;4.948;2022-11-03T13:51:09;6.63;;;1.35;;
59189;SDS011;50749;51.636;4.948;2022-11-03T13:53:36;3.47;;;1.25;;
59189;SDS011;50749;51.636;4.948;2022-11-03T13:56:03;3.20;;;1.25;;
59189;SDS011;50749;51.636;4.948;2022-11-03T13:58:29;4.90;;;1.33;;
59189;SDS011;50749;51.636;4.948;2022-11-03T14:00:55;5.70;;;1.52;;
59189;SDS011;50749;51.636;4.948;2022-11-03T14:03:21;4.40;;;1.40;;
59189;SDS011;50749;51.636;4.948;2022-11-03T14:05:49;4.18;;;1.23;;
59189;SDS011;50749;51.636;4.948;2022-11-03T14:08:16;3.60;;;1.27;;
59189;SDS011;50749;51.636;4.948;2022-11-03T14:10:42;7.13;;;1.58;;
59189;SDS011;50749;51.636;4.948;2022-11-03T14:13:10;2.08;;;1.05;;
59189;SDS011;50749;51.636;4.948;2022-11-03T14:15:35;5.20;;;1.52;;
59189;SDS011;50749;51.636;4.948;2022-11-03T14:18:01;4.85;;;1.40;;
59189;SDS011;50749;51.636;4.948;2022-11-03T14:20:32;3.42;;;1.30;;
59189;SDS011;50749;51.636;4.948;2022-11-03T14:22:59;3.83;;;1.40;;
59189;SDS011;50749;51.636;4.948;2022-11-03T14:25:25;3.17;;;1.60;;
59189;SDS011;50749;51.636;4.948;2022-11-03T14:27:51;5.32;;;1.35;;
59189;SDS011;50749;51.636;4.948;2022-11-03T14:30:17;5.07;;;1.42;;
59189;SDS011;50749;51.636;4.948;2022-11-03T14:32:43;5.18;;;1.23;;
59189;SDS011;50749;51.636;4.948;2022-11-03T14:35:09;5.22;;;1.40;;
59189;SDS011;50749;51.636;4.948;2022-11-03T14:37:35;5.82;;;1.42;;
59189;SDS011;50749;51.636;4.948;2022-11-03T14:40:01;3.85;;;1.25;;
59189;SDS011;50749;51.636;4.948;2022-11-03T14:42:27;6.50;;;1.42;;
59189;SDS011;50749;51.636;4.948;2022-11-03T14:44:53;2.92;;;1.30;;
59189;SDS011;50749;51.636;4.948;2022-11-03T14:47:19;4.40;;;1.35;;
59189;SDS011;50749;51.636;4.948;2022-11-03T14:49:46;5.45;;;1.40;;
59189;SDS011;50749;51.636;4.948;2022-11-03T14:52:13;2.90;;;1.27;;
59189;SDS011;50749;51.636;4.948;2022-11-03T14:54:42;5.78;;;1.23;;
59189;SDS011;50749;51.636;4.948;2022-11-03T14:57:11;2.67;;;1.38;;
59189;SDS011;50749;51.636;4.948;2022-11-03T14:59:38;3.80;;;1.42;;
59189;SDS011;50749;51.636;4.948;2022-11-03T15:02:04;4.72;;;1.20;;
59189;SDS011;50749;51.636;4.948;2022-11-03T15:04:30;4.57;;;1.48;;
59189;SDS011;50749;51.636;4.948;2022-11-03T15:06:57;2.17;;;1.00;;
59189;SDS011;50749;51.636;4.948;2022-11-03T15:09:23;2.03;;;0.90;;
59189;SDS011;50749;51.636;4.948;2022-11-03T15:11:49;4.18;;;1.20;;
59189;SDS011;50749;51.636;4.948;2022-11-03T15:14:20;2.10;;;0.90;;
59189;SDS011;50749;51.636;4.948;2022-11-03T15:16:46;3.42;;;1.30;;
59189;SDS011;50749;51.636;4.948;2022-11-03T15:19:13;4.47;;;1.13;;
59189;SDS011;50749;51.636;4.948;2022-11-03T15:21:39;3.42;;;1.13;;
59189;SDS011;50749;51.636;4.948;2022-11-03T15:24:05;2.20;;;1.00;;
59189;SDS011;50749;51.636;4.948;2022-11-03T15:26:32;6.35;;;1.42;;
59189;SDS011;50749;51.636;4.948;2022-11-03T15:28:58;3.58;;;1.80;;
59189;SDS011;50749;51.636;4.948;2022-11-03T15:31:25;3.55;;;1.77;;
59189;SDS011;50749;51.636;4.948;2022-11-03T15:33:53;3.15;;;1.00;;
59189;SDS011;50749;51.636;4.948;2022-11-03T15:36:19;3.33;;;1.00;;
59189;SDS011;50749;51.636;4.948;2022-11-03T15:38:45;3.80;;;1.30;;
59189;SDS011;50749;51.636;4.948;2022-11-03T15:41:11;3.45;;;1.10;;
59189;SDS011;50749;51.636;4.948;2022-11-03T15:43:43;1.52;;;1.08;;
59189;SDS011;50749;51.636;4.948;2022-11-03T15:46:14;3.50;;;1.10;;
59189;SDS011;50749;51.636;4.948;2022-11-03T15:48:41;2.67;;;0.90;;
59189;SDS011;50749;51.636;4.948;2022-11-03T15:51:07;4.03;;;1.05;;
59189;SDS011;50749;51.636;4.948;2022-11-03T15:53:33;1.33;;;0.90;;
59189;SDS011;50749;51.636;4.948;2022-11-03T15:55:59;4.07;;;1.13;;
59189;SDS011;50749;51.636;4.948;2022-11-03T15:58:25;5.28;;;1.40;;
59189;SDS011;50749;51.636;4.948;2022-11-03T16:00:56;6.88;;;1.00;;
59189;SDS011;50749;51.636;4.948;2022-11-03T16:03:24;2.67;;;1.27;;
59189;SDS011;50749;51.636;4.948;2022-11-03T16:05:50;3.53;;;1.10;;
59189;SDS011;50749;51.636;4.948;2022-11-03T16:08:16;4.28;;;1.10;;
59189;SDS011;50749;51.636;4.948;2022-11-03T16:10:42;2.88;;;1.33;;
59189;SDS011;50749;51.636;4.948;2022-11-03T16:13:12;2.95;;;1.10;;
59189;SDS011;50749;51.636;4.948;2022-11-03T16:15:38;1.92;;;0.95;;
59189;SDS011;50749;51.636;4.948;2022-11-03T16:18:07;4.07;;;1.13;;
59189;SDS011;50749;51.636;4.948;2022-11-03T16:20:40;5.07;;;0.90;;
59189;SDS011;50749;51.636;4.948;2022-11-03T16:23:07;3.38;;;0.98;;
59189;SDS011;50749;51.636;4.948;2022-11-03T16:25:33;4.60;;;1.17;;
59189;SDS011;50749;51.636;4.948;2022-11-03T16:28:02;6.93;;;1.17;;
59189;SDS011;50749;51.636;4.948;2022-11-03T16:30:29;2.70;;;0.93;;
59189;SDS011;50749;51.636;4.948;2022-11-03T16:32:58;3.40;;;1.00;;
59189;SDS011;50749;51.636;4.948;2022-11-03T16:35:23;4.10;;;1.10;;
59189;SDS011;50749;51.636;4.948;2022-11-03T16:37:49;2.78;;;1.30;;
59189;SDS011;50749;51.636;4.948;2022-11-03T16:40:17;2.97;;;1.02;;
59189;SDS011;50749;51.636;4.948;2022-11-03T16:42:46;2.17;;;1.00;;
59189;SDS011;50749;51.636;4.948;2022-11-03T16:45:23;2.47;;;1.20;;